Terminal Aerodrome Forecast
Issued by NWS Wilmington, OH

Current Version | Previous Version | Text Only | Print | Product List | Glossary Off
Versions: 1 2 3 4 5 6 7 8 9 10 11 12 13 14 15 16 17 18 19 20 21

818
FTUS41 KILN 160856 AAA
TAFCMH
TAF AMD
KCMH 160856Z 1609/1706 06003KT 6SM BR VCSH FEW014 BKN060 BKN100
     FM161800 11006KT 5SM BR OVC012
     FM170200 14005KT P6SM VCSH OVC009=

USA.gov is the U.S. government's official web portal to all federal, state and local government web resources and services.